Ibis Arrow — C6CU6 — position and weather

sailwx.info

Track history (hours):
 
Tides and Currents Weather Stations Pressure Air Temp Water Temp Dewpoint Dewpoint Depression Visibility Wind Speed Wind Dir Waves Ship Positions

Ibis Arrow

Last reported at 2017-Dec-09 12:00 UTC. Time now 2017-Dec-18 05:20 UTC.
Position S 00°36' W 030°42'.
Warning: this ship's position is 8 days out of date.

Length 187.5 m; beam 28 m; draft 12.3 m.

Type: Cargo ship. MMSI: 308532000.

Wind from 060 at 11 knots

Barometer 1011.4 mb
Air temperature 27.0 ° C
Visibility: greater than 10.8 NM
Dewpoint 24.1 ° C

Date/timePositionNaut miles runAvg speedWind from/ knotsBaromVisibWave heightAir tempDewpointWater temp
2017-Dec-09 12:00S 00°36' W 030°42'14412.0 060 / 111011.410.8 27.024.1
2017-Dec-09 00:00S 02°54' W 031°24'45312.6 050 / 121011.310.8 28.025.2
2017-Dec-07 12:00S 10°00' W 034°00'30912.9 020 / 151011.410.8 27.025.6
2017-Dec-06 12:00S 14°48' W 035°54'30412.7 330 / 181012.310.8 28.026.6
2017-Dec-05 12:00S 19°30' W 037°54'53711.2 310 / 301010.9 5.4 27.024.1
2017-Dec-03 11:53S 24°23' W 045°59'512.2
2017-Dec-03 11:30S 24°23' W 046°04'612.2
2017-Dec-03 11:00S 24°22' W 046°11'611.5
2017-Dec-03 10:30S 24°20' W 046°16'612.1
2017-Dec-03 10:00S 24°15' W 046°20'612.1
2017-Dec-03 09:30S 24°10' W 046°23'612.3
2017-Dec-03 09:00S 24°04' W 046°22'4 8.9
2017-Dec-03 08:30S 23°60' W 046°20'2 3.5
2017-Dec-03 07:52S 23°58' W 046°18'0 0.0
2017-Dec-03 07:01S 23°58' W 046°18'0 0.0
2017-Dec-03 06:55S 23°58' W 046°18'0 0.0
2017-Dec-03 02:17S 23°58' W 046°18'0 0.0
2017-Dec-03 01:59S 23°58' W 046°18'0 0.0
2017-Dec-02 13:53S 23°58' W 046°18'0 0.0
2017-Dec-02 13:29S 23°58' W 046°18'0 0.0
2017-Dec-02 12:41S 23°58' W 046°18'0 0.0
2017-Dec-02 12:29S 23°58' W 046°18'0 0.0
2017-Dec-02 11:35S 23°58' W 046°18'0 0.0
2017-Dec-02 11:29S 23°58' W 046°18'0 0.0
2017-Dec-02 10:41S 23°58' W 046°18'0 0.0
2017-Dec-02 10:29S 23°58' W 046°18'0 0.0
2017-Dec-02 09:59S 23°58' W 046°18'0 0.0
2017-Dec-02 09:29S 23°58' W 046°18'0 0.0
2017-Dec-02 08:59S 23°58' W 046°18'0 0.0
2017-Dec-02 08:29S 23°58' W 046°18'0 0.0
2017-Dec-02 07:59S 23°58' W 046°18'0 0.0
2017-Dec-02 06:11S 23°58' W 046°18'0 0.0
2017-Dec-02 05:56S 23°58' W 046°18'0 0.0
2017-Dec-02 04:59S 23°58' W 046°18'0 0.0
2017-Dec-02 04:29S 23°58' W 046°18'0 0.0
2017-Dec-02 03:59S 23°58' W 046°18'0 0.0
2017-Dec-02 03:29S 23°58' W 046°18'0 0.0
2017-Dec-02 01:11S 23°58' W 046°18'0 0.0
2017-Dec-02 00:59S 23°58' W 046°18'0 0.0
2017-Dec-02 00:29S 23°58' W 046°18'0 0.0
2017-Dec-01 20:29S 23°58' W 046°18'0 0.0
2017-Dec-01 19:53S 23°58' W 046°18'0 0.0
2017-Dec-01 19:23S 23°58' W 046°18'0 0.0
2017-Dec-01 18:53S 23°58' W 046°18'0 0.0
2017-Dec-01 18:17S 23°58' W 046°18'0 0.0
2017-Dec-01 17:59S 23°58' W 046°18'0 0.0
2017-Dec-01 15:41S 23°58' W 046°18'0 0.0
2017-Dec-01 15:17S 23°58' W 046°18'0 0.0
2017-Dec-01 14:59S 23°58' W 046°18'0 0.0
2017-Dec-01 13:23S 23°58' W 046°18'0 0.0
2017-Dec-01 12:53S 23°58' W 046°18'0 0.0
2017-Dec-01 12:29S 23°58' W 046°18'0 0.0
2017-Dec-01 11:59S 23°58' W 046°18'0 0.0
2017-Dec-01 11:29S 23°58' W 046°18'0 0.0
2017-Dec-01 10:59S 23°58' W 046°18'0 0.0
2017-Dec-01 10:29S 23°58' W 046°18'0 0.0
2017-Dec-01 09:53S 23°58' W 046°18'0 0.0
2017-Dec-01 09:29S 23°58' W 046°18'0 0.0
2017-Dec-01 08:59S 23°58' W 046°18'0 0.0
2017-Dec-01 08:29S 23°58' W 046°18'0 0.0
2017-Dec-01 07:59S 23°58' W 046°18'0 0.0
2017-Dec-01 07:29S 23°58' W 046°18'0 0.0
2017-Dec-01 06:59S 23°58' W 046°18'0 0.0
2017-Dec-01 06:29S 23°58' W 046°18'0 0.0
2017-Dec-01 05:53S 23°58' W 046°18'0 0.0
2017-Dec-01 05:29S 23°58' W 046°18'0 0.0
2017-Dec-01 04:59S 23°58' W 046°18'0 0.0
2017-Dec-01 04:23S 23°58' W 046°18'0 0.0
2017-Dec-01 03:59S 23°58' W 046°18'0 0.0
2017-Dec-01 03:29S 23°58' W 046°18'0 0.0
2017-Dec-01 01:53S 23°58' W 046°18'0 0.0
2017-Dec-01 00:53S 23°58' W 046°18'0 0.0
2017-Nov-30 22:44S 23°58' W 046°18'0 0.1
2017-Nov-30 22:30S 23°58' W 046°18'2 2.9
2017-Nov-30 21:59S 23°59' W 046°17'4 7.6
2017-Nov-30 21:30S 24°01' W 046°21'4 8.0
2017-Nov-30 21:00S 24°05' W 046°22'3 6.2
2017-Nov-30 20:30S 24°07' W 046°24'2 4.7
2017-Nov-30 20:00S 24°10' W 046°25'1 1.5
2017-Nov-30 19:30S 24°10' W 046°24'0 0.9
2017-Nov-30 19:00S 24°10' W 046°24'1 1.6
2017-Nov-30 18:30S 24°10' W 046°23'1 2.3
2017-Nov-30 18:00S 24°09' W 046°23'1 1.4
2017-Nov-30 17:30S 24°08' W 046°22'3 5.5
2017-Nov-30 17:00S 24°11' W 046°22'5 9.7
2017-Nov-30 16:30S 24°16' W 046°20'713.7
2017-Nov-30 16:01S 24°21' W 046°15'612.8
2017-Nov-30 15:30S 24°23' W 046°08'813.6
2017-Nov-30 14:57S 24°22' W 046°00'  
Track history (hours):
 
Tides and Currents Weather Stations Pressure Air Temp Water Temp Dewpoint Dewpoint Depression Visibility Wind Speed Wind Dir Waves Ship Positions

Ibis Arrow

Last reported at 2017-Dec-09 12:00 UTC. Time now 2017-Dec-18 05:20 UTC.
Position S 00°36' W 030°42'.
Warning: this ship's position is 8 days out of date.

Length 187.5 m; beam 28 m; draft 12.3 m.

Type: Cargo ship. MMSI: 308532000.

Wind from 060 at 11 knots

Barometer 1011.4 mb
Air temperature 27.0 ° C
Visibility: greater than 10.8 NM
Dewpoint 24.1 ° C

Date/timePositionNaut miles runAvg speedWind from/ knotsBaromVisibWave heightAir tempDewpointWater temp
2017-Dec-09 12:00S 00°36' W 030°42'14412.0 060 / 111011.410.8 27.024.1
2017-Dec-09 00:00S 02°54' W 031°24'45312.6 050 / 121011.310.8 28.025.2
2017-Dec-07 12:00S 10°00' W 034°00'30912.9 020 / 151011.410.8 27.025.6
2017-Dec-06 12:00S 14°48' W 035°54'30412.7 330 / 181012.310.8 28.026.6
2017-Dec-05 12:00S 19°30' W 037°54'53711.2 310 / 301010.9 5.4 27.024.1
2017-Dec-03 11:53S 24°23' W 045°59'512.2
2017-Dec-03 11:30S 24°23' W 046°04'612.2
2017-Dec-03 11:00S 24°22' W 046°11'611.5
2017-Dec-03 10:30S 24°20' W 046°16'612.1
2017-Dec-03 10:00S 24°15' W 046°20'612.1
2017-Dec-03 09:30S 24°10' W 046°23'612.3
2017-Dec-03 09:00S 24°04' W 046°22'4 8.9
2017-Dec-03 08:30S 23°60' W 046°20'2 3.5
2017-Dec-03 07:52S 23°58' W 046°18'0 0.0
2017-Dec-03 07:01S 23°58' W 046°18'0 0.0
2017-Dec-03 06:55S 23°58' W 046°18'0 0.0
2017-Dec-03 02:17S 23°58' W 046°18'0 0.0
2017-Dec-03 01:59S 23°58' W 046°18'0 0.0
2017-Dec-02 13:53S 23°58' W 046°18'0 0.0
2017-Dec-02 13:29S 23°58' W 046°18'0 0.0
2017-Dec-02 12:41S 23°58' W 046°18'0 0.0
2017-Dec-02 12:29S 23°58' W 046°18'0 0.0
2017-Dec-02 11:35S 23°58' W 046°18'0 0.0
2017-Dec-02 11:29S 23°58' W 046°18'0 0.0
2017-Dec-02 10:41S 23°58' W 046°18'0 0.0
2017-Dec-02 10:29S 23°58' W 046°18'0 0.0
2017-Dec-02 09:59S 23°58' W 046°18'0 0.0
2017-Dec-02 09:29S 23°58' W 046°18'0 0.0
2017-Dec-02 08:59S 23°58' W 046°18'0 0.0
2017-Dec-02 08:29S 23°58' W 046°18'0 0.0
2017-Dec-02 07:59S 23°58' W 046°18'0 0.0
2017-Dec-02 06:11S 23°58' W 046°18'0 0.0
2017-Dec-02 05:56S 23°58' W 046°18'0 0.0
2017-Dec-02 04:59S 23°58' W 046°18'0 0.0
2017-Dec-02 04:29S 23°58' W 046°18'0 0.0
2017-Dec-02 03:59S 23°58' W 046°18'0 0.0
2017-Dec-02 03:29S 23°58' W 046°18'0 0.0
2017-Dec-02 01:11S 23°58' W 046°18'0 0.0
2017-Dec-02 00:59S 23°58' W 046°18'0 0.0
2017-Dec-02 00:29S 23°58' W 046°18'0 0.0
2017-Dec-01 20:29S 23°58' W 046°18'0 0.0
2017-Dec-01 19:53S 23°58' W 046°18'0 0.0
2017-Dec-01 19:23S 23°58' W 046°18'0 0.0
2017-Dec-01 18:53S 23°58' W 046°18'0 0.0
2017-Dec-01 18:17S 23°58' W 046°18'0 0.0
2017-Dec-01 17:59S 23°58' W 046°18'0 0.0
2017-Dec-01 15:41S 23°58' W 046°18'0 0.0
2017-Dec-01 15:17S 23°58' W 046°18'0 0.0
2017-Dec-01 14:59S 23°58' W 046°18'0 0.0
2017-Dec-01 13:23S 23°58' W 046°18'0 0.0
2017-Dec-01 12:53S 23°58' W 046°18'0 0.0
2017-Dec-01 12:29S 23°58' W 046°18'0 0.0
2017-Dec-01 11:59S 23°58' W 046°18'0 0.0
2017-Dec-01 11:29S 23°58' W 046°18'0 0.0
2017-Dec-01 10:59S 23°58' W 046°18'0 0.0
2017-Dec-01 10:29S 23°58' W 046°18'0 0.0
2017-Dec-01 09:53S 23°58' W 046°18'0 0.0
2017-Dec-01 09:29S 23°58' W 046°18'0 0.0
2017-Dec-01 08:59S 23°58' W 046°18'0 0.0
2017-Dec-01 08:29S 23°58' W 046°18'0 0.0
2017-Dec-01 07:59S 23°58' W 046°18'0 0.0
2017-Dec-01 07:29S 23°58' W 046°18'0 0.0
2017-Dec-01 06:59S 23°58' W 046°18'0 0.0
2017-Dec-01 06:29S 23°58' W 046°18'0 0.0
2017-Dec-01 05:53S 23°58' W 046°18'0 0.0
2017-Dec-01 05:29S 23°58' W 046°18'0 0.0
2017-Dec-01 04:59S 23°58' W 046°18'0 0.0
2017-Dec-01 04:23S 23°58' W 046°18'0 0.0
2017-Dec-01 03:59S 23°58' W 046°18'0 0.0
2017-Dec-01 03:29S 23°58' W 046°18'0 0.0
2017-Dec-01 01:53S 23°58' W 046°18'0 0.0
2017-Dec-01 00:53S 23°58' W 046°18'0 0.0
2017-Nov-30 22:44S 23°58' W 046°18'0 0.1
2017-Nov-30 22:30S 23°58' W 046°18'2 2.9
2017-Nov-30 21:59S 23°59' W 046°17'4 7.6
2017-Nov-30 21:30S 24°01' W 046°21'4 8.0
2017-Nov-30 21:00S 24°05' W 046°22'3 6.2
2017-Nov-30 20:30S 24°07' W 046°24'2 4.7
2017-Nov-30 20:00S 24°10' W 046°25'1 1.5
2017-Nov-30 19:30S 24°10' W 046°24'0 0.9
2017-Nov-30 19:00S 24°10' W 046°24'1 1.6
2017-Nov-30 18:30S 24°10' W 046°23'1 2.3
2017-Nov-30 18:00S 24°09' W 046°23'1 1.4
2017-Nov-30 17:30S 24°08' W 046°22'3 5.5
2017-Nov-30 17:00S 24°11' W 046°22'5 9.7
2017-Nov-30 16:30S 24°16' W 046°20'713.7
2017-Nov-30 16:01S 24°21' W 046°15'612.8
2017-Nov-30 15:30S 24°23' W 046°08'813.6
2017-Nov-30 14:57S 24°22' W 046°00'  

Dump ship's entire track history